sensor_id;sensor_type;location;lat;lon;timestamp;pressure;altitude;pressure_sealevel;temperature
68510;BMP180;55512;50.102;19.958;2023-01-30T00:00:25;98696.20;;;-1.90
68510;BMP180;55512;50.102;19.958;2023-01-30T00:02:51;98689.20;;;-1.90
68510;BMP180;55512;50.102;19.958;2023-01-30T00:05:16;98693.00;;;-1.82
68510;BMP180;55512;50.102;19.958;2023-01-30T00:07:42;98682.60;;;-1.80
68510;BMP180;55512;50.102;19.958;2023-01-30T00:10:08;98677.60;;;-1.80
68510;BMP180;55512;50.102;19.958;2023-01-30T00:12:34;98668.80;;;-1.78
68510;BMP180;55512;50.102;19.958;2023-01-30T00:14:59;98659.40;;;-1.70
68510;BMP180;55512;50.102;19.958;2023-01-30T00:17:25;98653.60;;;-1.70
68510;BMP180;55512;50.102;19.958;2023-01-30T00:19:50;98650.60;;;-1.70
68510;BMP180;55512;50.102;19.958;2023-01-30T00:22:16;98641.40;;;-1.70
68510;BMP180;55512;50.102;19.958;2023-01-30T00:24:41;98635.20;;;-1.70
68510;BMP180;55512;50.102;19.958;2023-01-30T00:27:07;98633.40;;;-1.66
68510;BMP180;55512;50.102;19.958;2023-01-30T00:29:32;98628.20;;;-1.70
68510;BMP180;55512;50.102;19.958;2023-01-30T00:31:57;98618.20;;;-1.62
68510;BMP180;55512;50.102;19.958;2023-01-30T00:34:23;98611.80;;;-1.60
68510;BMP180;55512;50.102;19.958;2023-01-30T00:36:48;98606.00;;;-1.60
68510;BMP180;55512;50.102;19.958;2023-01-30T00:39:14;98600.40;;;-1.60
68510;BMP180;55512;50.102;19.958;2023-01-30T00:41:39;98593.60;;;-1.58
68510;BMP180;55512;50.102;19.958;2023-01-30T00:44:23;98582.60;;;-1.50
68510;BMP180;55512;50.102;19.958;2023-01-30T00:47:08;98576.00;;;-1.50
68510;BMP180;55512;50.102;19.958;2023-01-30T00:49:36;98565.40;;;-1.50
68510;BMP180;55512;50.102;19.958;2023-01-30T00:52:02;98567.80;;;-1.50
68510;BMP180;55512;50.102;19.958;2023-01-30T00:54:29;98564.00;;;-1.50
68510;BMP180;55512;50.102;19.958;2023-01-30T00:56:54;98561.40;;;-1.42
68510;BMP180;55512;50.102;19.958;2023-01-30T00:59:20;98555.00;;;-1.42
68510;BMP180;55512;50.102;19.958;2023-01-30T01:01:45;98551.00;;;-1.40
68510;BMP180;55512;50.102;19.958;2023-01-30T01:04:11;98547.20;;;-1.40
68510;BMP180;55512;50.102;19.958;2023-01-30T01:06:38;98539.80;;;-1.40
68510;BMP180;55512;50.102;19.958;2023-01-30T01:09:05;98530.00;;;-1.40
68510;BMP180;55512;50.102;19.958;2023-01-30T01:11:30;98523.80;;;-1.40
68510;BMP180;55512;50.102;19.958;2023-01-30T01:13:59;98519.20;;;-1.40
68510;BMP180;55512;50.102;19.958;2023-01-30T01:16:27;98518.80;;;-1.40
68510;BMP180;55512;50.102;19.958;2023-01-30T01:18:54;98510.40;;;-1.40
68510;BMP180;55512;50.102;19.958;2023-01-30T01:21:21;98507.20;;;-1.40
68510;BMP180;55512;50.102;19.958;2023-01-30T01:23:55;98501.00;;;-1.40
68510;BMP180;55512;50.102;19.958;2023-01-30T01:26:22;98498.80;;;-1.40
68510;BMP180;55512;50.102;19.958;2023-01-30T01:28:47;98491.40;;;-1.40
68510;BMP180;55512;50.102;19.958;2023-01-30T01:31:15;98488.60;;;-1.40
68510;BMP180;55512;50.102;19.958;2023-01-30T01:33:41;98486.80;;;-1.40
68510;BMP180;55512;50.102;19.958;2023-01-30T01:36:07;98481.20;;;-1.40
68510;BMP180;55512;50.102;19.958;2023-01-30T01:38:33;98477.20;;;-1.48
68510;BMP180;55512;50.102;19.958;2023-01-30T01:40:59;98469.80;;;-1.50
68510;BMP180;55512;50.102;19.958;2023-01-30T01:43:33;98462.00;;;-1.50
68510;BMP180;55512;50.102;19.958;2023-01-30T01:46:19;98447.40;;;-1.60
68510;BMP180;55512;50.102;19.958;2023-01-30T01:48:51;98440.40;;;-1.60
68510;BMP180;55512;50.102;19.958;2023-01-30T01:51:33;98443.80;;;-1.62
68510;BMP180;55512;50.102;19.958;2023-01-30T01:54:16;98440.60;;;-1.70
68510;BMP180;55512;50.102;19.958;2023-01-30T01:56:46;98441.40;;;-1.70
68510;BMP180;55512;50.102;19.958;2023-01-30T01:59:31;98434.20;;;-1.80
68510;BMP180;55512;50.102;19.958;2023-01-30T02:02:02;98424.80;;;-1.80
68510;BMP180;55512;50.102;19.958;2023-01-30T02:04:31;98426.20;;;-1.80
68510;BMP180;55512;50.102;19.958;2023-01-30T02:07:17;98416.40;;;-1.88
68510;BMP180;55512;50.102;19.958;2023-01-30T02:09:45;98413.80;;;-1.90
68510;BMP180;55512;50.102;19.958;2023-01-30T02:12:14;98409.00;;;-1.90
68510;BMP180;55512;50.102;19.958;2023-01-30T02:14:40;98408.00;;;-1.90
68510;BMP180;55512;50.102;19.958;2023-01-30T02:17:06;98399.20;;;-1.94
68510;BMP180;55512;50.102;19.958;2023-01-30T02:20:02;98397.60;;;-2.00
68510;BMP180;55512;50.102;19.958;2023-01-30T02:26:12;98385.80;;;-2.00
68510;BMP180;55512;50.102;19.958;2023-01-30T02:31:46;98387.80;;;-2.10
68510;BMP180;55512;50.102;19.958;2023-01-30T02:34:49;98383.20;;;-2.10
68510;BMP180;55512;50.102;19.958;2023-01-30T02:42:50;98373.20;;;-2.30
68510;BMP180;55512;50.102;19.958;2023-01-30T02:48:32;98354.80;;;-2.38
68510;BMP180;55512;50.102;19.958;2023-01-30T02:51:08;98347.40;;;-2.40
68510;BMP180;55512;50.102;19.958;2023-01-30T02:53:37;98344.60;;;-2.40
68510;BMP180;55512;50.102;19.958;2023-01-30T02:56:02;98341.60;;;-2.40
68510;BMP180;55512;50.102;19.958;2023-01-30T02:58:37;98342.40;;;-2.40
68510;BMP180;55512;50.102;19.958;2023-01-30T03:07:05;98334.80;;;-2.40
68510;BMP180;55512;50.102;19.958;2023-01-30T03:13:52;98319.20;;;-2.40
68510;BMP180;55512;50.102;19.958;2023-01-30T03:16:37;98312.60;;;-2.40
68510;BMP180;55512;50.102;19.958;2023-01-30T03:19:05;98309.80;;;-2.40
68510;BMP180;55512;50.102;19.958;2023-01-30T03:21:40;98307.20;;;-2.40
68510;BMP180;55512;50.102;19.958;2023-01-30T03:24:07;98303.40;;;-2.40
68510;BMP180;55512;50.102;19.958;2023-01-30T03:26:38;98299.00;;;-2.40
68510;BMP180;55512;50.102;19.958;2023-01-30T03:29:04;98290.40;;;-2.40
68510;BMP180;55512;50.102;19.958;2023-01-30T03:31:30;98283.00;;;-2.40
68510;BMP180;55512;50.102;19.958;2023-01-30T03:33:55;98291.80;;;-2.40
68510;BMP180;55512;50.102;19.958;2023-01-30T03:36:21;98294.60;;;-2.38
68510;BMP180;55512;50.102;19.958;2023-01-30T03:38:46;98291.40;;;-2.36
68510;BMP180;55512;50.102;19.958;2023-01-30T03:41:12;98291.00;;;-2.40
68510;BMP180;55512;50.102;19.958;2023-01-30T03:43:37;98283.80;;;-2.38
68510;BMP180;55512;50.102;19.958;2023-01-30T03:46:03;98276.40;;;-2.40
68510;BMP180;55512;50.102;19.958;2023-01-30T03:48:29;98272.20;;;-2.40
68510;BMP180;55512;50.102;19.958;2023-01-30T03:50:55;98266.40;;;-2.40
68510;BMP180;55512;50.102;19.958;2023-01-30T03:53:20;98265.00;;;-2.40
68510;BMP180;55512;50.102;19.958;2023-01-30T03:55:46;98252.40;;;-2.42
68510;BMP180;55512;50.102;19.958;2023-01-30T03:58:11;98248.40;;;-2.50
68510;BMP180;55512;50.102;19.958;2023-01-30T04:00:37;98251.00;;;-2.50
68510;BMP180;55512;50.102;19.958;2023-01-30T04:03:02;98242.80;;;-2.54
68510;BMP180;55512;50.102;19.958;2023-01-30T04:05:28;98232.80;;;-2.60
68510;BMP180;55512;50.102;19.958;2023-01-30T04:07:57;98231.40;;;-2.60
68510;BMP180;55512;50.102;19.958;2023-01-30T04:10:24;98235.40;;;-2.60
68510;BMP180;55512;50.102;19.958;2023-01-30T04:12:49;98234.20;;;-2.54
68510;BMP180;55512;50.102;19.958;2023-01-30T04:15:15;98224.80;;;-2.56
68510;BMP180;55512;50.102;19.958;2023-01-30T04:17:42;98219.20;;;-2.60
68510;BMP180;55512;50.102;19.958;2023-01-30T04:20:10;98217.60;;;-2.60
68510;BMP180;55512;50.102;19.958;2023-01-30T04:22:36;98215.40;;;-2.60
68510;BMP180;55512;50.102;19.958;2023-01-30T04:25:01;98216.00;;;-2.60
68510;BMP180;55512;50.102;19.958;2023-01-30T04:27:27;98210.00;;;-2.64
68510;BMP180;55512;50.102;19.958;2023-01-30T04:29:53;98216.00;;;-2.70
68510;BMP180;55512;50.102;19.958;2023-01-30T04:32:19;98209.60;;;-2.70
68510;BMP180;55512;50.102;19.958;2023-01-30T04:34:44;98206.40;;;-2.70
68510;BMP180;55512;50.102;19.958;2023-01-30T04:37:11;98199.20;;;-2.66
68510;BMP180;55512;50.102;19.958;2023-01-30T04:39:37;98196.00;;;-2.68
68510;BMP180;55512;50.102;19.958;2023-01-30T04:42:02;98197.20;;;-2.70
68510;BMP180;55512;50.102;19.958;2023-01-30T04:44:28;98194.40;;;-2.70
68510;BMP180;55512;50.102;19.958;2023-01-30T04:46:54;98199.00;;;-2.64
68510;BMP180;55512;50.102;19.958;2023-01-30T04:49:20;98188.00;;;-2.62
68510;BMP180;55512;50.102;19.958;2023-01-30T04:51:45;98177.40;;;-2.60
68510;BMP180;55512;50.102;19.958;2023-01-30T04:54:11;98168.80;;;-2.60
68510;BMP180;55512;50.102;19.958;2023-01-30T04:56:36;98169.00;;;-2.60
68510;BMP180;55512;50.102;19.958;2023-01-30T04:59:02;98168.20;;;-2.60
68510;BMP180;55512;50.102;19.958;2023-01-30T05:01:35;98175.20;;;-2.60
68510;BMP180;55512;50.102;19.958;2023-01-30T05:04:03;98175.00;;;-2.60
68510;BMP180;55512;50.102;19.958;2023-01-30T05:06:31;98170.20;;;-2.60
68510;BMP180;55512;50.102;19.958;2023-01-30T05:08:57;98168.20;;;-2.60
68510;BMP180;55512;50.102;19.958;2023-01-30T05:11:26;98169.80;;;-2.60
68510;BMP180;55512;50.102;19.958;2023-01-30T05:13:53;98175.60;;;-2.58
68510;BMP180;55512;50.102;19.958;2023-01-30T05:16:21;98173.20;;;-2.52
68510;BMP180;55512;50.102;19.958;2023-01-30T05:18:47;98170.60;;;-2.50
68510;BMP180;55512;50.102;19.958;2023-01-30T05:21:17;98163.40;;;-2.50
68510;BMP180;55512;50.102;19.958;2023-01-30T05:23:44;98164.40;;;-2.50
68510;BMP180;55512;50.102;19.958;2023-01-30T05:26:11;98156.20;;;-2.50
68510;BMP180;55512;50.102;19.958;2023-01-30T05:28:38;98151.80;;;-2.46
68510;BMP180;55512;50.102;19.958;2023-01-30T05:31:07;98136.80;;;-2.42
68510;BMP180;55512;50.102;19.958;2023-01-30T05:33:33;98126.80;;;-2.40
68510;BMP180;55512;50.102;19.958;2023-01-30T05:35:59;98127.20;;;-2.40
68510;BMP180;55512;50.102;19.958;2023-01-30T05:38:25;98118.60;;;-2.40
68510;BMP180;55512;50.102;19.958;2023-01-30T05:41:06;98118.00;;;-2.40
68510;BMP180;55512;50.102;19.958;2023-01-30T05:43:34;98117.80;;;-2.40
68510;BMP180;55512;50.102;19.958;2023-01-30T05:46:02;98121.00;;;-2.40
68510;BMP180;55512;50.102;19.958;2023-01-30T05:48:28;98120.00;;;-2.36
68510;BMP180;55512;50.102;19.958;2023-01-30T05:50:56;98121.80;;;-2.32
68510;BMP180;55512;50.102;19.958;2023-01-30T05:53:26;98122.40;;;-2.30
68510;BMP180;55512;50.102;19.958;2023-01-30T05:55:56;98115.60;;;-2.30
68510;BMP180;55512;50.102;19.958;2023-01-30T05:58:22;98112.40;;;-2.30
68510;BMP180;55512;50.102;19.958;2023-01-30T06:00:47;98106.80;;;-2.30
68510;BMP180;55512;50.102;19.958;2023-01-30T06:03:13;98090.40;;;-2.30
68510;BMP180;55512;50.102;19.958;2023-01-30T06:05:38;98085.60;;;-2.30
68510;BMP180;55512;50.102;19.958;2023-01-30T06:08:04;98093.80;;;-2.20
68510;BMP180;55512;50.102;19.958;2023-01-30T06:10:29;98091.00;;;-2.20
68510;BMP180;55512;50.102;19.958;2023-01-30T06:12:55;98093.40;;;-2.20
68510;BMP180;55512;50.102;19.958;2023-01-30T06:15:20;98084.80;;;-2.20
68510;BMP180;55512;50.102;19.958;2023-01-30T06:17:46;98086.60;;;-2.20
68510;BMP180;55512;50.102;19.958;2023-01-30T06:20:11;98086.20;;;-2.20
68510;BMP180;55512;50.102;19.958;2023-01-30T06:22:37;98079.40;;;-2.20
68510;BMP180;55512;50.102;19.958;2023-01-30T06:25:04;98079.20;;;-2.18
68510;BMP180;55512;50.102;19.958;2023-01-30T06:27:29;98058.80;;;-2.10
68510;BMP180;55512;50.102;19.958;2023-01-30T06:29:55;98053.00;;;-2.10
68510;BMP180;55512;50.102;19.958;2023-01-30T06:32:20;98052.00;;;-2.10
68510;BMP180;55512;50.102;19.958;2023-01-30T06:34:46;98037.20;;;-2.10
68510;BMP180;55512;50.102;19.958;2023-01-30T06:37:11;98037.00;;;-2.00
68510;BMP180;55512;50.102;19.958;2023-01-30T06:39:37;98041.00;;;-2.00
68510;BMP180;55512;50.102;19.958;2023-01-30T06:42:02;98037.80;;;-2.00
68510;BMP180;55512;50.102;19.958;2023-01-30T06:44:28;98033.40;;;-2.00
68510;BMP180;55512;50.102;19.958;2023-01-30T06:46:53;98030.40;;;-2.00
68510;BMP180;55512;50.102;19.958;2023-01-30T06:49:18;98027.80;;;-2.00
68510;BMP180;55512;50.102;19.958;2023-01-30T06:51:44;98044.80;;;-2.00
68510;BMP180;55512;50.102;19.958;2023-01-30T06:54:09;98016.40;;;-1.98
68510;BMP180;55512;50.102;19.958;2023-01-30T06:56:35;98018.20;;;-1.92
68510;BMP180;55512;50.102;19.958;2023-01-30T06:59:00;98011.40;;;-1.90
68510;BMP180;55512;50.102;19.958;2023-01-30T07:01:26;98001.20;;;-1.90
68510;BMP180;55512;50.102;19.958;2023-01-30T07:03:51;97998.80;;;-1.90
68510;BMP180;55512;50.102;19.958;2023-01-30T07:06:17;98007.60;;;-1.82
68510;BMP180;55512;50.102;19.958;2023-01-30T07:08:42;97997.60;;;-1.80
68510;BMP180;55512;50.102;19.958;2023-01-30T07:11:09;97979.40;;;-1.80
68510;BMP180;55512;50.102;19.958;2023-01-30T07:13:34;97970.80;;;-1.72
68510;BMP180;55512;50.102;19.958;2023-01-30T07:16:00;97973.40;;;-1.70
68510;BMP180;55512;50.102;19.958;2023-01-30T07:18:26;97964.00;;;-1.66
68510;BMP180;55512;50.102;19.958;2023-01-30T07:20:51;97959.20;;;-1.60
68510;BMP180;55512;50.102;19.958;2023-01-30T07:23:17;97965.20;;;-1.60
68510;BMP180;55512;50.102;19.958;2023-01-30T07:25:43;97959.40;;;-1.50
68510;BMP180;55512;50.102;19.958;2023-01-30T07:28:09;97962.40;;;-1.50
68510;BMP180;55512;50.102;19.958;2023-01-30T07:30:35;97963.80;;;-1.50
68510;BMP180;55512;50.102;19.958;2023-01-30T07:33:03;97966.60;;;-1.40
68510;BMP180;55512;50.102;19.958;2023-01-30T07:35:33;97970.60;;;-1.40
68510;BMP180;55512;50.102;19.958;2023-01-30T07:37:59;97968.80;;;-1.40
68510;BMP180;55512;50.102;19.958;2023-01-30T07:40:25;97971.40;;;-1.30
68510;BMP180;55512;50.102;19.958;2023-01-30T07:43:03;97975.60;;;-1.30
68510;BMP180;55512;50.102;19.958;2023-01-30T07:45:40;97983.00;;;-1.20
68510;BMP180;55512;50.102;19.958;2023-01-30T07:48:09;97981.00;;;-1.20
68510;BMP180;55512;50.102;19.958;2023-01-30T07:50:35;97985.60;;;-1.20
68510;BMP180;55512;50.102;19.958;2023-01-30T07:53:05;97981.40;;;-1.18
68510;BMP180;55512;50.102;19.958;2023-01-30T07:55:32;97973.60;;;-1.18
68510;BMP180;55512;50.102;19.958;2023-01-30T07:57:57;97957.80;;;-1.10
68510;BMP180;55512;50.102;19.958;2023-01-30T08:00:23;97955.40;;;-1.10
68510;BMP180;55512;50.102;19.958;2023-01-30T08:02:49;97964.20;;;-1.00
68510;BMP180;55512;50.102;19.958;2023-01-30T08:05:15;97962.60;;;-1.00
68510;BMP180;55512;50.102;19.958;2023-01-30T08:07:41;97966.60;;;-0.90
68510;BMP180;55512;50.102;19.958;2023-01-30T08:10:07;97959.00;;;-0.90
68510;BMP180;55512;50.102;19.958;2023-01-30T08:12:33;97957.80;;;-0.80
68510;BMP180;55512;50.102;19.958;2023-01-30T08:14:58;97961.00;;;-0.80
68510;BMP180;55512;50.102;19.958;2023-01-30T08:17:24;97950.00;;;-0.80
68510;BMP180;55512;50.102;19.958;2023-01-30T08:19:49;97936.80;;;-0.80
68510;BMP180;55512;50.102;19.958;2023-01-30T08:22:14;97926.40;;;-0.72
68510;BMP180;55512;50.102;19.958;2023-01-30T08:24:40;97931.40;;;-0.70
68510;BMP180;55512;50.102;19.958;2023-01-30T08:27:06;97936.60;;;-0.60
68510;BMP180;55512;50.102;19.958;2023-01-30T08:29:31;97945.40;;;-0.58
68510;BMP180;55512;50.102;19.958;2023-01-30T08:31:58;97939.80;;;-0.50
68510;BMP180;55512;50.102;19.958;2023-01-30T08:34:24;97934.40;;;-0.40
68510;BMP180;55512;50.102;19.958;2023-01-30T08:36:50;97924.60;;;-0.36
68510;BMP180;55512;50.102;19.958;2023-01-30T08:39:16;97908.20;;;-0.30
68510;BMP180;55512;50.102;19.958;2023-01-30T08:41:42;97907.40;;;-0.22
68510;BMP180;55512;50.102;19.958;2023-01-30T08:44:11;97905.80;;;-0.20
68510;BMP180;55512;50.102;19.958;2023-01-30T08:46:38;97912.80;;;-0.10
68510;BMP180;55512;50.102;19.958;2023-01-30T08:49:04;97917.00;;;0.00
68510;BMP180;55512;50.102;19.958;2023-01-30T08:51:31;97922.60;;;0.10
68510;BMP180;55512;50.102;19.958;2023-01-30T08:53:57;97916.20;;;0.20
68510;BMP180;55512;50.102;19.958;2023-01-30T08:56:23;97911.20;;;0.20
68510;BMP180;55512;50.102;19.958;2023-01-30T08:58:49;97908.40;;;0.30
68510;BMP180;55512;50.102;19.958;2023-01-30T09:01:15;97895.80;;;0.38
68510;BMP180;55512;50.102;19.958;2023-01-30T09:03:41;97886.80;;;0.40
68510;BMP180;55512;50.102;19.958;2023-01-30T09:06:07;97877.20;;;0.50
68510;BMP180;55512;50.102;19.958;2023-01-30T09:08:33;97866.00;;;0.60
68510;BMP180;55512;50.102;19.958;2023-01-30T09:11:02;97868.60;;;0.70
68510;BMP180;55512;50.102;19.958;2023-01-30T09:13:28;97868.60;;;0.80
68510;BMP180;55512;50.102;19.958;2023-01-30T09:15:56;97872.40;;;0.82
68510;BMP180;55512;50.102;19.958;2023-01-30T09:18:22;97871.60;;;0.90
68510;BMP180;55512;50.102;19.958;2023-01-30T09:20:48;97857.60;;;0.94
68510;BMP180;55512;50.102;19.958;2023-01-30T09:23:13;97868.60;;;1.00
68510;BMP180;55512;50.102;19.958;2023-01-30T09:25:39;97863.60;;;1.00
68510;BMP180;55512;50.102;19.958;2023-01-30T09:28:04;97865.20;;;1.00
68510;BMP180;55512;50.102;19.958;2023-01-30T09:30:30;97864.00;;;1.00
68510;BMP180;55512;50.102;19.958;2023-01-30T09:32:55;97861.80;;;1.00
68510;BMP180;55512;50.102;19.958;2023-01-30T09:35:21;97840.40;;;1.00
68510;BMP180;55512;50.102;19.958;2023-01-30T09:37:52;97849.80;;;1.00
68510;BMP180;55512;50.102;19.958;2023-01-30T09:40:28;97842.40;;;0.94
68510;BMP180;55512;50.102;19.958;2023-01-30T09:43:27;97841.20;;;1.00
68510;BMP180;55512;50.102;19.958;2023-01-30T09:46:38;97832.20;;;0.98
68510;BMP180;55512;50.102;19.958;2023-01-30T09:49:10;97833.20;;;0.90
68510;BMP180;55512;50.102;19.958;2023-01-30T09:54:39;97823.20;;;0.90
68510;BMP180;55512;50.102;19.958;2023-01-30T10:00:03;97825.00;;;0.98
68510;BMP180;55512;50.102;19.958;2023-01-30T10:05:34;97803.40;;;1.00
68510;BMP180;55512;50.102;19.958;2023-01-30T10:08:29;97800.00;;;1.08
68510;BMP180;55512;50.102;19.958;2023-01-30T10:17:04;97778.00;;;1.20
68510;BMP180;55512;50.102;19.958;2023-01-30T10:20:13;97762.20;;;1.30
68510;BMP180;55512;50.102;19.958;2023-01-30T10:23:19;97754.00;;;1.40
68510;BMP180;55512;50.102;19.958;2023-01-30T10:25:55;97745.20;;;1.40
68510;BMP180;55512;50.102;19.958;2023-01-30T10:28:29;97749.40;;;1.50
68510;BMP180;55512;50.102;19.958;2023-01-30T10:31:08;97741.40;;;1.50
68510;BMP180;55512;50.102;19.958;2023-01-30T10:33:43;97738.20;;;1.60
68510;BMP180;55512;50.102;19.958;2023-01-30T10:36:28;97723.20;;;1.60
68510;BMP180;55512;50.102;19.958;2023-01-30T10:39:03;97720.00;;;1.60
68510;BMP180;55512;50.102;19.958;2023-01-30T10:41:51;97728.60;;;1.60
68510;BMP180;55512;50.102;19.958;2023-01-30T10:44:21;97718.80;;;1.60
68510;BMP180;55512;50.102;19.958;2023-01-30T10:47:08;97735.20;;;1.60
68510;BMP180;55512;50.102;19.958;2023-01-30T10:49:44;97720.20;;;1.50
68510;BMP180;55512;50.102;19.958;2023-01-30T10:52:35;97716.40;;;1.50
68510;BMP180;55512;50.102;19.958;2023-01-30T10:55:28;97721.80;;;1.50
68510;BMP180;55512;50.102;19.958;2023-01-30T11:03:49;97718.00;;;1.50
68510;BMP180;55512;50.102;19.958;2023-01-30T11:06:25;97718.40;;;1.50
68510;BMP180;55512;50.102;19.958;2023-01-30T11:08:53;97725.60;;;1.50
68510;BMP180;55512;50.102;19.958;2023-01-30T11:13:47;97708.00;;;1.30
68510;BMP180;55512;50.102;19.958;2023-01-30T11:16:12;97704.20;;;1.30
68510;BMP180;55512;50.102;19.958;2023-01-30T11:18:50;97694.80;;;1.30
68510;BMP180;55512;50.102;19.958;2023-01-30T11:21:25;97684.20;;;1.30
68510;BMP180;55512;50.102;19.958;2023-01-30T11:23:53;97684.60;;;1.24
68510;BMP180;55512;50.102;19.958;2023-01-30T11:26:24;97681.00;;;1.30
68510;BMP180;55512;50.102;19.958;2023-01-30T11:28:53;97673.80;;;1.30
68510;BMP180;55512;50.102;19.958;2023-01-30T11:31:27;97681.40;;;1.36
68510;BMP180;55512;50.102;19.958;2023-01-30T11:34:04;97672.60;;;1.40
68510;BMP180;55512;50.102;19.958;2023-01-30T11:36:33;97665.60;;;1.40
68510;BMP180;55512;50.102;19.958;2023-01-30T11:39:19;97673.60;;;1.40
68510;BMP180;55512;50.102;19.958;2023-01-30T11:44:26;97658.20;;;1.38
68510;BMP180;55512;50.102;19.958;2023-01-30T11:46:52;97651.00;;;1.30
68510;BMP180;55512;50.102;19.958;2023-01-30T11:49:20;97646.00;;;1.30
68510;BMP180;55512;50.102;19.958;2023-01-30T11:51:51;97641.40;;;1.30
68510;BMP180;55512;50.102;19.958;2023-01-30T11:54:41;97634.00;;;1.30
68510;BMP180;55512;50.102;19.958;2023-01-30T11:57:17;97625.60;;;1.30
68510;BMP180;55512;50.102;19.958;2023-01-30T12:02:32;97623.60;;;1.22
68510;BMP180;55512;50.102;19.958;2023-01-30T12:05:15;97626.80;;;1.20
68510;BMP180;55512;50.102;19.958;2023-01-30T12:07:44;97620.60;;;1.20
68510;BMP180;55512;50.102;19.958;2023-01-30T12:10:41;97619.80;;;1.20
68510;BMP180;55512;50.102;19.958;2023-01-30T12:13:41;97618.60;;;1.20
68510;BMP180;55512;50.102;19.958;2023-01-30T12:20:00;97610.00;;;1.20
68510;BMP180;55512;50.102;19.958;2023-01-30T12:23:00;97603.20;;;1.20
68510;BMP180;55512;50.102;19.958;2023-01-30T12:31:52;97600.80;;;1.30
68510;BMP180;55512;50.102;19.958;2023-01-30T12:34:21;97602.00;;;1.30
68510;BMP180;55512;50.102;19.958;2023-01-30T12:45:30;97596.80;;;1.30
68510;BMP180;55512;50.102;19.958;2023-01-30T12:48:32;97588.00;;;1.30
68510;BMP180;55512;50.102;19.958;2023-01-30T12:56:51;97595.00;;;1.20
68510;BMP180;55512;50.102;19.958;2023-01-30T13:00:19;97591.00;;;1.20
68510;BMP180;55512;50.102;19.958;2023-01-30T13:05:48;97586.20;;;1.20
68510;BMP180;55512;50.102;19.958;2023-01-30T13:14:37;97585.00;;;1.22
68510;BMP180;55512;50.102;19.958;2023-01-30T13:17:47;97575.80;;;1.20
68510;BMP180;55512;50.102;19.958;2023-01-30T13:20:37;97589.80;;;1.20
68510;BMP180;55512;50.102;19.958;2023-01-30T13:23:37;97581.00;;;1.20
68510;BMP180;55512;50.102;19.958;2023-01-30T13:26:35;97568.40;;;1.20
68510;BMP180;55512;50.102;19.958;2023-01-30T13:29:12;97567.60;;;1.20
68510;BMP180;55512;50.102;19.958;2023-01-30T13:31:52;97572.40;;;1.20
68510;BMP180;55512;50.102;19.958;2023-01-30T13:34:29;97570.60;;;1.20
68510;BMP180;55512;50.102;19.958;2023-01-30T13:37:10;97559.40;;;1.18
68510;BMP180;55512;50.102;19.958;2023-01-30T13:39:44;97561.40;;;1.20
68510;BMP180;55512;50.102;19.958;2023-01-30T13:45:24;97557.60;;;1.20
68510;BMP180;55512;50.102;19.958;2023-01-30T13:56:39;97549.80;;;1.04
68510;BMP180;55512;50.102;19.958;2023-01-30T14:02:23;97549.40;;;1.02
68510;BMP180;55512;50.102;19.958;2023-01-30T14:04:54;97546.20;;;1.00
68510;BMP180;55512;50.102;19.958;2023-01-30T14:07:40;97542.80;;;1.00
68510;BMP180;55512;50.102;19.958;2023-01-30T14:10:15;97548.00;;;1.00
68510;BMP180;55512;50.102;19.958;2023-01-30T14:12:48;97551.40;;;1.06
68510;BMP180;55512;50.102;19.958;2023-01-30T14:20:27;97555.00;;;1.00
68510;BMP180;55512;50.102;19.958;2023-01-30T14:23:04;97555.60;;;1.00
68510;BMP180;55512;50.102;19.958;2023-01-30T14:25:33;97547.00;;;1.00
68510;BMP180;55512;50.102;19.958;2023-01-30T14:30:51;97548.40;;;1.00
68510;BMP180;55512;50.102;19.958;2023-01-30T14:45:55;97547.40;;;1.10
68510;BMP180;55512;50.102;19.958;2023-01-30T14:48:41;97542.00;;;1.10
68510;BMP180;55512;50.102;19.958;2023-01-30T14:54:22;97544.20;;;1.20
68510;BMP180;55512;50.102;19.958;2023-01-30T14:57:01;97551.00;;;1.20
68510;BMP180;55512;50.102;19.958;2023-01-30T15:18:20;97585.00;;;1.50
68510;BMP180;55512;50.102;19.958;2023-01-30T15:27:27;97568.20;;;1.50
68510;BMP180;55512;50.102;19.958;2023-01-30T15:33:22;97575.60;;;1.60
68510;BMP180;55512;50.102;19.958;2023-01-30T15:35:48;97578.20;;;1.60
68510;BMP180;55512;50.102;19.958;2023-01-30T15:38:24;97575.80;;;1.60
68510;BMP180;55512;50.102;19.958;2023-01-30T15:40:58;97578.80;;;1.66
68510;BMP180;55512;50.102;19.958;2023-01-30T15:46:29;97586.60;;;1.72
68510;BMP180;55512;50.102;19.958;2023-01-30T15:49:11;97586.00;;;1.80
68510;BMP180;55512;50.102;19.958;2023-01-30T15:51:40;97594.00;;;1.78
68510;BMP180;55512;50.102;19.958;2023-01-30T15:54:16;97586.00;;;1.78
68510;BMP180;55512;50.102;19.958;2023-01-30T15:56:46;97592.80;;;1.80
68510;BMP180;55512;50.102;19.958;2023-01-30T15:59:37;97598.00;;;1.80
68510;BMP180;55512;50.102;19.958;2023-01-30T16:02:24;97592.20;;;1.80
68510;BMP180;55512;50.102;19.958;2023-01-30T16:05:17;97599.80;;;1.80
68510;BMP180;55512;50.102;19.958;2023-01-30T16:07:46;97603.40;;;1.74
68510;BMP180;55512;50.102;19.958;2023-01-30T16:10:34;97610.00;;;1.74
68510;BMP180;55512;50.102;19.958;2023-01-30T16:13:08;97612.80;;;1.80
68510;BMP180;55512;50.102;19.958;2023-01-30T16:15:42;97608.00;;;1.80
68510;BMP180;55512;50.102;19.958;2023-01-30T16:20:57;97620.40;;;1.80
68510;BMP180;55512;50.102;19.958;2023-01-30T16:26:26;97629.00;;;1.80
68510;BMP180;55512;50.102;19.958;2023-01-30T16:29:10;97627.80;;;1.80
68510;BMP180;55512;50.102;19.958;2023-01-30T16:31:39;97630.80;;;1.80
68510;BMP180;55512;50.102;19.958;2023-01-30T16:34:16;97634.40;;;1.80
68510;BMP180;55512;50.102;19.958;2023-01-30T16:36:47;97634.60;;;1.80
68510;BMP180;55512;50.102;19.958;2023-01-30T16:39:32;97640.40;;;1.80
68510;BMP180;55512;50.102;19.958;2023-01-30T16:42:00;97648.80;;;1.80
68510;BMP180;55512;50.102;19.958;2023-01-30T16:44:29;97637.80;;;1.80
68510;BMP180;55512;50.102;19.958;2023-01-30T16:46:57;97644.40;;;1.80
68510;BMP180;55512;50.102;19.958;2023-01-30T16:49:43;97641.00;;;1.80
68510;BMP180;55512;50.102;19.958;2023-01-30T16:52:16;97636.80;;;1.80
68510;BMP180;55512;50.102;19.958;2023-01-30T16:54:53;97631.60;;;1.82
68510;BMP180;55512;50.102;19.958;2023-01-30T16:59:53;97635.80;;;1.90
68510;BMP180;55512;50.102;19.958;2023-01-30T17:04:55;97628.20;;;1.90
68510;BMP180;55512;50.102;19.958;2023-01-30T17:07:33;97641.80;;;1.90
68510;BMP180;55512;50.102;19.958;2023-01-30T17:10:01;97636.60;;;1.90
68510;BMP180;55512;50.102;19.958;2023-01-30T17:17:37;97639.20;;;1.90